Time;durP1;ratioP1;P1;durP2;ratioP2;P2;SDS_P1;SDS_P2;PMS_P1;PMS_P2;Temp;Humidity;BMP_temperature;BMP_pressure;BME280_temperature;BME280_humidity;BME280_pressure;Samples;Min_cycle;Max_cycle;Signal;HPM_P1;HPM_P2
2022/08/18 00:01:56;;;;;;;10.38;5.07;;;19.00;99.90;;;;;;5057746;28;20040;-76
2022/08/18 00:04:22;;;;;;;7.55;4.10;;;18.10;99.90;;;;;;5057722;28;20032;-76
2022/08/18 00:06:48;;;;;;;9.32;4.68;;;18.80;99.90;;;;;;5040067;28;20020;-75
2022/08/18 00:09:13;;;;;;;11.27;4.55;;;18.90;99.90;;;;;;5058363;28;20020;-77
2022/08/18 00:11:41;;;;;;;8.20;4.32;;;18.90;99.90;;;;;;5039458;28;20101;-81
2022/08/18 00:14:10;;;;;;;10.85;4.22;;;18.90;99.90;;;;;;5058193;28;20284;-76
2022/08/18 00:16:36;;;;;;;8.00;4.22;;;19.30;99.90;;;;;;5057559;28;20040;-78
2022/08/18 00:19:02;;;;;;;8.10;4.03;;;19.70;99.90;;;;;;5058072;28;20028;-75
2022/08/18 00:21:28;;;;;;;9.52;4.82;;;20.00;99.90;;;;;;5057884;28;20016;-76
2022/08/18 00:23:54;;;;;;;10.00;4.60;;;19.70;99.90;;;;;;5039754;28;20233;-76
2022/08/18 00:26:20;;;;;;;8.55;3.90;;;19.50;99.90;;;;;;5057842;28;20104;-76
2022/08/18 00:28:46;;;;;;;8.20;4.30;;;20.10;99.90;;;;;;5057529;28;20254;-76
2022/08/18 00:31:12;;;;;;;9.77;4.65;;;19.80;99.90;;;;;;5057452;28;20748;-76
2022/08/18 00:33:37;;;;;;;10.65;3.83;;;19.60;99.90;;;;;;5058042;28;20020;-77
2022/08/18 00:36:03;;;;;;;8.80;4.45;;;19.50;99.90;;;;;;5057370;28;20096;-76
2022/08/18 00:38:29;;;;;;;11.55;5.05;;;19.50;99.90;;;;;;5039891;28;20032;-76
2022/08/18 00:40:56;;;;;;;12.45;4.85;;;19.00;99.90;;;;;;5057556;28;20027;-77
2022/08/18 00:43:48;;;;;;;7.82;4.00;;;19.90;99.90;;;;;;5057355;28;20020;-78
2022/08/18 00:46:23;;;;;;;7.40;3.85;;;18.90;99.90;;;;;;5054371;28;20028;-77
2022/08/18 00:48:49;;;;;;;8.43;4.65;;;20.90;99.90;;;;;;5061142;28;20146;-77
2022/08/18 00:51:46;;;;;;;10.70;4.78;;;18.70;99.90;;;;;;5061273;28;20736;-77
2022/08/18 00:54:17;;;;;;;7.88;4.20;;;18.50;99.90;;;;;;5043519;28;20597;-81
2022/08/18 00:56:47;;;;;;;11.30;4.07;;;18.90;99.90;;;;;;5060985;28;20214;-79
2022/08/18 00:59:27;;;;;;;10.75;4.85;;;18.30;99.90;;;;;;5060867;28;20028;-76
2022/08/18 01:02:01;;;;;;;7.57;4.40;;;18.20;99.90;;;;;;5060639;28;20045;-75
2022/08/18 01:04:39;;;;;;;12.07;4.80;;;18.20;99.90;;;;;;5060619;28;20100;-76
2022/08/18 01:07:11;;;;;;;11.20;4.80;;;18.70;99.90;;;;;;5060763;28;20009;-75
2022/08/18 01:09:37;;;;;;;9.40;5.00;;;18.10;99.90;;;;;;5060232;28;20100;-75
2022/08/18 01:12:07;;;;;;;10.93;5.53;;;18.00;99.90;;;;;;5060353;28;20671;-75
2022/08/18 01:14:33;;;;;;;9.88;5.05;;;;;;;;;;5060631;28;20016;-77
2022/08/18 01:22:48;;;;;;;8.77;4.32;;;18.10;99.90;;;;;;5060304;28;20028;-78
2022/08/18 01:28:03;;;;;;;9.43;4.93;;;18.50;99.90;;;;;;5060325;28;19911;-76
2022/08/18 01:30:31;;;;;;;10.48;4.85;;;18.20;99.90;;;;;;5041819;28;20020;-76
2022/08/18 01:32:58;;;;;;;8.90;4.47;;;18.30;99.90;;;;;;5042629;28;20027;-76
2022/08/18 01:35:26;;;;;;;9.98;4.03;;;18.40;99.90;;;;;;5060289;28;20422;-76
2022/08/18 01:37:53;;;;;;;13.02;5.40;;;18.30;99.90;;;;;;5041782;28;20040;-77
2022/08/18 01:40:22;;;;;;;8.43;4.00;;;18.60;99.90;;;;;;5060330;28;20671;-76
2022/08/18 01:42:48;;;;;;;8.40;4.82;;;18.70;99.90;;;;;;5041783;28;20028;-75
2022/08/18 01:45:16;;;;;;;7.18;3.83;;;18.60;99.90;;;;;;5060267;28;20032;-76
2022/08/18 01:47:44;;;;;;;11.23;4.85;;;18.50;99.90;;;;;;5060110;28;20032;-75
2022/08/18 01:50:11;;;;;;;8.68;4.55;;;18.70;99.90;;;;;;5060062;28;20044;-78
2022/08/18 01:52:36;;;;;;;7.75;4.32;;;19.10;99.90;;;;;;5059710;28;20044;-76
2022/08/18 01:55:03;;;;;;;11.30;4.57;;;19.20;99.90;;;;;;5059716;28;20036;-77
2022/08/18 01:57:29;;;;;;;9.98;4.88;;;19.00;99.90;;;;;;5059528;28;20031;-81
2022/08/18 01:59:56;;;;;;;9.00;4.30;;;19.60;99.90;;;;;;5059731;28;20097;-77
2022/08/18 02:02:31;;;;;;;8.73;4.25;;;19.50;99.90;;;;;;5042062;28;20017;-78
2022/08/18 02:05:03;;;;;;;10.38;4.72;;;20.10;99.90;;;;;;5059678;28;20019;-78
2022/08/18 02:07:28;;;;;;;9.73;4.55;;;21.10;99.90;;;;;;5059734;28;20694;-77
2022/08/18 02:09:57;;;;;;;7.70;4.38;;;19.10;99.90;;;;;;5059389;28;20032;-77
2022/08/18 02:12:26;;;;;;;10.38;4.68;;;19.00;99.90;;;;;;5059458;28;20088;-77
2022/08/18 02:14:55;;;;;;;8.30;4.50;;;18.80;99.90;;;;;;5059154;28;20024;-76
2022/08/18 02:17:21;;;;;;;9.85;5.22;;;15.80;99.90;;;;;;5041486;28;20714;-80
2022/08/18 02:19:47;;;;;;;9.48;4.43;;;18.50;99.90;;;;;;5059622;28;20042;-77
2022/08/18 02:22:18;;;;;;;10.27;4.88;;;18.20;99.90;;;;;;5041608;28;20582;-76
2022/08/18 02:24:45;;;;;;;8.90;4.35;;;18.20;99.90;;;;;;5059341;28;20042;-75
2022/08/18 02:27:13;;;;;;;9.70;4.45;;;18.40;99.90;;;;;;5041776;28;20116;-76
2022/08/18 02:29:39;;;;;;;15.80;5.60;;;18.20;99.90;;;;;;5059361;28;20016;-77
2022/08/18 02:32:06;;;;;;;9.80;4.68;;;18.10;99.90;;;;;;5058972;28;20016;-76
2022/08/18 02:34:32;;;;;;;12.55;6.53;;;18.10;99.90;;;;;;5059181;28;20246;-75
2022/08/18 02:37:01;;;;;;;13.23;4.90;;;18.00;99.90;;;;;;5058921;28;20609;-76
2022/08/18 02:39:29;;;;;;;9.23;5.38;;;18.10;99.90;;;;;;5041240;28;20017;-76
2022/08/18 02:41:55;;;;;;;14.02;4.90;;;;;;;;;;5041867;28;20035;-76
2022/08/18 02:44:24;;;;;;;9.68;5.07;;;18.30;99.90;;;;;;5059000;28;20091;-76
2022/08/18 02:46:53;;;;;;;9.23;4.72;;;18.10;99.90;;;;;;5058355;28;20085;-75
2022/08/18 02:49:19;;;;;;;10.50;5.07;;;18.30;99.90;;;;;;5058526;28;20044;-76
2022/08/18 02:51:45;;;;;;;10.25;5.13;;;18.40;99.90;;;;;;5058274;28;20013;-76
2022/08/18 02:54:11;;;;;;;9.23;4.50;;;18.60;99.90;;;;;;5058110;28;20024;-76
2022/08/18 02:56:37;;;;;;;7.57;3.72;;;18.60;99.90;;;;;;5058084;28;20028;-74
2022/08/18 02:59:06;;;;;;;8.52;4.75;;;18.40;99.90;;;;;;5058697;28;20009;-76
2022/08/18 03:01:38;;;;;;;8.32;4.40;;;18.10;99.90;;;;;;5058966;28;20031;-76
2022/08/18 03:04:09;;;;;;;9.13;4.28;;;16.40;99.90;;;;;;5041670;28;20112;-79
2022/08/18 03:06:45;;;;;;;9.50;4.85;;;17.50;99.90;;;;;;5059468;28;20021;-80
2022/08/18 03:09:16;;;;;;;8.00;4.15;;;15.30;99.90;;;;;;5041559;28;20017;-78
2022/08/18 03:12:04;;;;;;;11.15;4.93;;;16.20;99.90;;;;;;5040830;28;20020;-79
2022/08/18 03:14:30;;;;;;;9.00;4.38;;;16.10;99.90;;;;;;5041243;28;20013;-76
2022/08/18 03:16:57;;;;;;;9.73;5.03;;;18.40;99.90;;;;;;5058419;28;20079;-74
2022/08/18 03:19:27;;;;;;;10.07;4.57;;;18.90;99.90;;;;;;5058164;28;20074;-79
2022/08/18 03:21:54;;;;;;;9.70;4.60;;;18.90;99.90;;;;;;5058606;28;20529;-75
2022/08/18 03:24:20;;;;;;;8.35;4.18;;;19.50;99.90;;;;;;5058211;28;20054;-77
2022/08/18 03:26:47;;;;;;;11.63;3.72;;;19.80;99.90;;;;;;5058486;28;20518;-78
2022/08/18 03:29:13;;;;;;;7.68;4.07;;;20.20;99.90;;;;;;5040092;28;20039;-77
2022/08/18 03:31:42;;;;;;;12.23;4.80;;;20.70;99.90;;;;;;5058177;28;20016;-76
2022/08/18 03:34:08;;;;;;;10.32;4.75;;;20.70;99.90;;;;;;5058451;28;20682;-75
2022/08/18 03:36:35;;;;;;;11.93;6.07;;;20.60;99.90;;;;;;5040218;28;20021;-77
2022/08/18 03:39:04;;;;;;;13.88;6.72;;;20.50;99.90;;;;;;5058351;28;20678;-75
2022/08/18 03:41:30;;;;;;;8.18;4.68;;;20.00;99.90;;;;;;5058017;28;20113;-76
2022/08/18 03:43:56;;;;;;;7.65;3.80;;;18.70;99.90;;;;;;5058097;28;20028;-76
2022/08/18 03:46:23;;;;;;;8.27;4.40;;;20.00;99.90;;;;;;5057958;28;20678;-76
2022/08/18 03:48:50;;;;;;;11.40;4.57;;;20.30;99.90;;;;;;5057837;28;20021;-76
2022/08/18 03:51:23;;;;;;;10.93;5.07;;;20.50;99.90;;;;;;5057864;28;20063;-76
2022/08/18 03:53:50;;;;;;;9.32;4.40;;;20.40;99.90;;;;;;5039847;28;20021;-76
2022/08/18 03:56:19;;;;;;;8.55;4.03;;;19.90;99.90;;;;;;5057619;28;20581;-76
2022/08/18 03:58:49;;;;;;;8.02;4.05;;;19.60;99.90;;;;;;5057721;28;20127;-77
2022/08/18 04:01:18;;;;;;;9.95;4.38;;;19.80;99.90;;;;;;5057863;28;20013;-75
2022/08/18 04:03:46;;;;;;;9.25;4.97;;;19.40;99.90;;;;;;5057894;28;20046;-76
2022/08/18 04:06:17;;;;;;;10.23;4.20;;;19.00;99.90;;;;;;5057788;28;20098;-76
2022/08/18 04:08:43;;;;;;;7.82;4.13;;;19.00;99.90;;;;;;5039476;28;20654;-77
2022/08/18 04:11:10;;;;;;;12.27;5.18;;;18.90;99.90;;;;;;5057885;28;20617;-76
2022/08/18 04:13:36;;;;;;;9.00;4.40;;;18.80;99.90;;;;;;5057551;28;20082;-75
2022/08/18 04:16:02;;;;;;;12.63;7.75;;;18.80;99.90;;;;;;5038692;28;20062;-76
2022/08/18 04:18:28;;;;;;;8.80;5.40;;;19.20;99.90;;;;;;5057339;28;20070;-76
2022/08/18 04:20:54;;;;;;;9.95;4.70;;;19.30;99.90;;;;;;5040122;28;20064;-76
2022/08/18 04:23:25;;;;;;;10.60;4.95;;;19.70;99.90;;;;;;5061275;28;20040;-75
2022/08/18 04:25:56;;;;;;;11.73;5.13;;;19.90;99.90;;;;;;5061479;28;20021;-78
2022/08/18 04:28:22;;;;;;;8.68;4.63;;;19.50;99.90;;;;;;5061404;28;20017;-85
2022/08/18 04:30:48;;;;;;;14.93;4.90;;;19.30;99.90;;;;;;5061221;28;20027;-77
2022/08/18 04:33:14;;;;;;;10.07;4.70;;;19.30;99.90;;;;;;5061351;28;20020;-76
2022/08/18 04:35:45;;;;;;;10.23;4.95;;;19.10;99.90;;;;;;5061234;28;20027;-77
2022/08/18 04:38:12;;;;;;;9.98;4.57;;;19.50;99.90;;;;;;5042859;28;20200;-77
2022/08/18 04:40:40;;;;;;;8.25;3.88;;;19.90;99.90;;;;;;5042688;28;20021;-77
2022/08/18 04:43:10;;;;;;;9.50;4.13;;;20.30;99.90;;;;;;5043113;28;20017;-78
2022/08/18 04:45:38;;;;;;;10.38;5.05;;;19.80;99.90;;;;;;5061441;28;20659;-76
2022/08/18 04:48:05;;;;;;;8.35;4.15;;;20.40;99.90;;;;;;5061215;28;20108;-76
2022/08/18 04:50:45;;;;;;;8.70;5.15;;;20.60;99.90;;;;;;5061107;28;20698;-80
2022/08/18 04:55:55;;;;;;;7.75;4.90;;;20.50;99.90;;;;;;5060678;28;20102;-76
2022/08/18 04:58:23;;;;;;;13.77;4.78;;;20.80;99.90;;;;;;5061168;28;20650;-76
2022/08/18 05:01:01;;;;;;;9.15;4.82;;;20.80;99.90;;;;;;5061197;28;20020;-76
2022/08/18 05:03:28;;;;;;;9.40;4.72;;;;;;;;;;5060494;28;20028;-76
2022/08/18 05:05:57;;;;;;;9.23;4.70;;;21.00;99.90;;;;;;5059821;28;20620;-75
2022/08/18 05:08:24;;;;;;;9.80;4.93;;;20.80;99.90;;;;;;5059106;28;20033;-76
2022/08/18 05:10:56;;;;;;;8.20;3.95;;;20.00;99.90;;;;;;5059468;28;20012;-76
2022/08/18 05:13:24;;;;;;;9.80;4.00;;;21.40;99.90;;;;;;5060384;28;20012;-76
2022/08/18 05:15:58;;;;;;;9.88;4.53;;;21.10;99.90;;;;;;5065767;28;20036;-77
2022/08/18 05:18:24;;;;;;;8.77;4.40;;;21.40;99.90;;;;;;5080851;28;20036;-76
2022/08/18 05:20:51;;;;;;;36.20;17.13;;;21.40;99.90;;;;;;5080702;28;20670;-76
2022/08/18 05:23:18;;;;;;;11.88;5.93;;;21.00;99.90;;;;;;5080854;28;20020;-75
2022/08/18 05:25:45;;;;;;;13.43;6.45;;;21.10;99.90;;;;;;5080328;28;20016;-77
2022/08/18 05:28:13;;;;;;;15.38;7.13;;;21.70;99.90;;;;;;5062411;28;20589;-78
2022/08/18 05:30:40;;;;;;;10.40;5.72;;;21.30;99.90;;;;;;5062369;28;20164;-76
2022/08/18 05:33:06;;;;;;;10.73;5.47;;;;;;;;;;5079943;28;20577;-76
2022/08/18 05:36:03;;;;;;;10.30;5.78;;;21.60;99.90;;;;;;5080094;28;20012;-76
2022/08/18 05:38:52;;;;;;;10.80;5.03;;;23.10;99.90;;;;;;5060011;28;20702;-76
2022/08/18 05:41:38;;;;;;;11.50;6.00;;;18.20;99.90;;;;;;5061706;28;20035;-77
2022/08/18 05:44:08;;;;;;;11.07;6.28;;;21.00;99.90;;;;;;5080364;28;20027;-76
2022/08/18 05:46:41;;;;;;;13.90;6.22;;;21.30;99.90;;;;;;5080221;28;20105;-77
2022/08/18 05:49:07;;;;;;;12.25;5.65;;;21.60;99.90;;;;;;5079959;28;20510;-76
2022/08/18 05:51:56;;;;;;;12.40;6.35;;;21.70;99.90;;;;;;5080421;28;20107;-76
2022/08/18 05:57:13;;;;;;;12.60;5.80;;;22.00;99.90;;;;;;5079769;28;20545;-78
2022/08/18 05:59:41;;;;;;;9.68;5.63;;;21.90;99.90;;;;;;5079974;28;20024;-76
2022/08/18 06:02:10;;;;;;;10.95;5.07;;;22.80;99.90;;;;;;5079950;28;20104;-76
2022/08/18 06:04:42;;;;;;;11.18;5.93;;;22.30;99.90;;;;;;5061401;28;20058;-76
2022/08/18 06:07:13;;;;;;;10.02;5.35;;;22.50;99.50;;;;;;5062713;28;20028;-75
2022/08/18 06:09:49;;;;;;;10.18;5.40;;;19.30;99.00;;;;;;5080260;28;20028;-77
2022/08/18 06:12:23;;;;;;;11.35;6.93;;;22.50;99.70;;;;;;5064205;28;20090;-76
2022/08/18 06:14:49;;;;;;;11.82;5.93;;;22.50;99.60;;;;;;5064279;28;20032;-76
2022/08/18 06:17:30;;;;;;;14.88;7.25;;;22.70;99.40;;;;;;5082190;28;20123;-76
2022/08/18 06:20:27;;;;;;;12.05;6.45;;;20.00;99.90;;;;;;5064361;28;20043;-76
2022/08/18 06:23:02;;;;;;;10.05;5.70;;;22.10;99.90;;;;;;5082019;28;20043;-76
2022/08/18 06:26:01;;;;;;;10.30;5.60;;;21.90;99.90;;;;;;5080452;28;20020;-77
2022/08/18 06:28:44;;;;;;;11.13;5.80;;;22.00;99.90;;;;;;5079746;28;20021;-77
2022/08/18 06:31:43;;;;;;;9.50;5.38;;;22.20;99.90;;;;;;5062109;28;20020;-76
2022/08/18 06:34:47;;;;;;;11.38;5.18;;;22.30;99.90;;;;;;4978334;28;20110;-77
2022/08/18 06:37:19;;;;;;;;;;;22.20;99.90;;;;;;4978663;28;20039;-76
2022/08/18 06:39:49;;;;;;;9.35;4.80;;;22.50;99.70;;;;;;4979628;28;20447;-78
2022/08/18 06:42:25;;;;;;;9.68;5.20;;;22.70;99.60;;;;;;4979397;28;20045;-76
2022/08/18 06:45:01;;;;;;;10.35;5.45;;;22.70;99.50;;;;;;4964405;28;20026;-76
2022/08/18 06:47:35;;;;;;;10.70;6.00;;;22.60;99.80;;;;;;4982327;28;20030;-76
2022/08/18 06:50:20;;;;;;;11.55;5.50;;;22.80;99.60;;;;;;4982769;28;20039;-76
2022/08/18 06:52:56;;;;;;;10.05;5.40;;;22.90;99.60;;;;;;4977916;28;20069;-76
2022/08/18 06:55:42;;;;;;;10.70;5.82;;;23.10;99.20;;;;;;4978208;28;20030;-78
2022/08/18 06:58:19;;;;;;;11.95;6.30;;;23.00;99.00;;;;;;4977333;28;20034;-78
2022/08/18 07:00:51;;;;;;;11.23;6.00;;;23.10;99.00;;;;;;4976693;28;20018;-77
2022/08/18 07:03:24;;;;;;;11.88;6.38;;;24.40;99.40;;;;;;4977120;28;20027;-76
2022/08/18 07:06:05;;;;;;;11.30;5.97;;;21.10;98.20;;;;;;4959933;28;20215;-77
2022/08/18 07:08:32;;;;;;;11.43;5.40;;;23.50;98.80;;;;;;4976617;28;20101;-77
2022/08/18 07:11:16;;;;;;;12.43;6.00;;;23.60;98.70;;;;;;5024631;28;20043;-76
2022/08/18 07:13:45;;;;;;;10.93;5.53;;;23.70;98.30;;;;;;5078170;28;20016;-77
2022/08/18 07:16:33;;;;;;;10.68;5.45;;;23.70;98.20;;;;;;5077943;28;20701;-77
2022/08/18 07:19:17;;;;;;;15.30;7.88;;;23.70;98.10;;;;;;5078119;28;20682;-77
2022/08/18 07:21:43;;;;;;;10.75;6.03;;;23.70;97.70;;;;;;5078088;28;20103;-77
2022/08/18 07:24:27;;;;;;;12.35;5.78;;;23.70;98.10;;;;;;5078140;28;20028;-76
2022/08/18 07:27:16;;;;;;;10.85;5.82;;;23.90;97.90;;;;;;5078231;28;20016;-76
2022/08/18 07:30:02;;;;;;;8.90;5.13;;;24.00;98.00;;;;;;5078061;28;20024;-76
2022/08/18 07:33:08;;;;;;;9.75;5.57;;;24.20;97.60;;;;;;5078002;28;20012;-76
2022/08/18 07:35:58;;;;;;;17.70;5.63;;;24.30;97.20;;;;;;5059937;28;20582;-76
2022/08/18 07:38:41;;;;;;;11.65;5.68;;;24.70;97.10;;;;;;5077872;28;20033;-76
2022/08/18 07:41:29;;;;;;;9.88;5.43;;;24.60;97.30;;;;;;5060210;28;20173;-76
2022/08/18 07:44:27;;;;;;;10.45;5.47;;;25.00;97.40;;;;;;5077889;28;20028;-79
2022/08/18 07:47:02;;;;;;;12.75;5.57;;;24.50;96.70;;;;;;5078004;28;20012;-77
2022/08/18 07:49:33;;;;;;;10.40;6.00;;;25.20;96.90;;;;;;5060305;28;20012;-76
2022/08/18 07:52:06;;;;;;;9.82;4.78;;;24.70;96.70;;;;;;5059806;28;20052;-76
2022/08/18 07:55:10;;;;;;;11.02;5.45;;;24.80;96.50;;;;;;5078001;28;20024;-77
2022/08/18 07:57:45;;;;;;;9.63;4.95;;;25.20;96.30;;;;;;5076635;28;20032;-77
2022/08/18 08:00:17;;;;;;;14.85;5.90;;;25.10;95.90;;;;;;5064277;28;20107;-76
2022/08/18 08:02:48;;;;;;;9.57;5.65;;;25.10;95.90;;;;;;5082215;28;20021;-76
2022/08/18 08:05:36;;;;;;;11.15;5.25;;;25.10;95.80;;;;;;5064063;28;20021;-76
2022/08/18 08:08:12;;;;;;;12.60;5.90;;;25.50;95.80;;;;;;5081520;28;20024;-77
2022/08/18 08:11:06;;;;;;;11.38;5.55;;;25.60;96.50;;;;;;5081770;28;20157;-76
2022/08/18 08:13:52;;;;;;;10.27;5.38;;;25.60;95.10;;;;;;5082116;28;20027;-75
2022/08/18 08:16:36;;;;;;;9.82;5.25;;;26.00;95.00;;;;;;5081649;28;20068;-76
2022/08/18 08:19:36;;;;;;;13.35;5.25;;;26.10;95.10;;;;;;5081764;28;20036;-82
2022/08/18 08:22:27;;;;;;;8.50;5.03;;;27.00;94.90;;;;;;5081861;28;20046;-77
2022/08/18 08:25:14;;;;;;;10.43;5.10;;;26.20;94.40;;;;;;5062732;28;20036;-76
2022/08/18 08:27:41;;;;;;;10.73;5.72;;;26.80;94.50;;;;;;5063874;28;20558;-78
2022/08/18 08:30:08;;;;;;;9.93;5.13;;;26.50;94.70;;;;;;5081636;28;20293;-75
2022/08/18 08:32:44;;;;;;;9.45;5.10;;;26.50;94.30;;;;;;5063147;28;20016;-84
2022/08/18 08:35:13;;;;;;;8.60;4.20;;;26.60;94.30;;;;;;5081287;28;20022;-76
2022/08/18 08:37:39;;;;;;;12.63;5.55;;;26.80;94.30;;;;;;5063085;28;20024;-76
2022/08/18 08:40:14;;;;;;;11.02;5.75;;;27.10;93.70;;;;;;5081166;28;20066;-76
2022/08/18 08:43:06;;;;;;;10.90;4.88;;;27.10;94.20;;;;;;5063374;28;20020;-76
2022/08/18 08:45:36;;;;;;;8.88;4.75;;;27.50;93.30;;;;;;5081570;28;20099;-76
2022/08/18 08:48:28;;;;;;;11.85;5.47;;;25.70;92.70;;;;;;5063161;28;20145;-78
2022/08/18 08:51:32;;;;;;;11.40;5.75;;;28.80;93.60;;;;;;5081736;28;20036;-78
2022/08/18 08:54:10;;;;;;;9.93;5.07;;;27.50;92.80;;;;;;5047535;28;20570;-77
2022/08/18 08:56:47;;;;;;;8.32;4.28;;;27.70;92.60;;;;;;5063650;28;20658;-78
2022/08/18 08:59:16;;;;;;;10.50;5.43;;;27.80;92.60;;;;;;5063366;28;20032;-76
2022/08/18 09:01:57;;;;;;;11.40;5.03;;;28.00;92.70;;;;;;5081503;28;20017;-78
2022/08/18 09:04:32;;;;;;;12.88;4.88;;;28.00;92.10;;;;;;5080900;28;20048;-76
2022/08/18 09:07:35;;;;;;;10.52;5.35;;;28.00;91.70;;;;;;5080268;28;20274;-75
2022/08/18 09:10:21;;;;;;;;;;;28.20;91.90;;;;;;5081201;28;20601;-75
2022/08/18 09:12:47;;;;;;;10.07;4.72;;;28.50;91.80;;;;;;4980995;28;19940;-78
2022/08/18 09:15:39;;;;;;;10.10;4.78;;;26.20;90.70;;;;;;4997488;28;20034;-74
2022/08/18 09:18:05;;;;;;;11.57;5.18;;;;;;;;;;4993063;28;20038;-75
2022/08/18 09:20:56;;;;;;;10.95;5.30;;;28.90;90.10;;;;;;4981227;28;20037;-75
2022/08/18 09:23:41;;;;;;;10.48;5.13;;;29.10;90.00;;;;;;4998190;28;20030;-77
2022/08/18 09:26:38;;;;;;;11.40;5.97;;;29.30;90.30;;;;;;4998043;28;20052;-76
2022/08/18 09:29:20;;;;;;;11.00;5.22;;;29.50;89.70;;;;;;4997968;28;20124;-78
2022/08/18 09:32:05;;;;;;;12.43;6.07;;;29.70;90.40;;;;;;4997697;28;20077;-76
2022/08/18 09:35:04;;;;;;;11.38;6.07;;;30.50;88.80;;;;;;4997591;28;20420;-80
2022/08/18 09:37:44;;;;;;;10.23;5.78;;;30.10;87.90;;;;;;4995653;28;20113;-79
2022/08/18 09:43:35;;;;;;;10.27;5.07;;;30.60;84.30;;;;;;4997629;28;20685;-77
2022/08/18 09:46:03;;;;;;;8.88;5.22;;;30.90;82.90;;;;;;4997571;28;20108;-76
2022/08/18 09:48:34;;;;;;;11.85;5.10;;;30.70;81.50;;;;;;4997597;28;20022;-77
2022/08/18 09:51:17;;;;;;;12.70;4.25;;;31.40;80.90;;;;;;5052379;28;20032;-77
2022/08/18 09:53:45;;;;;;;;;;;30.90;80.80;;;;;;5060919;28;20469;-76
2022/08/18 09:56:14;;;;;;;9.07;3.78;;;31.20;77.40;;;;;;5060592;28;19908;-76
2022/08/18 09:58:54;;;;;;;8.82;4.47;;;31.30;75.80;;;;;;5060231;28;20025;-78
2022/08/18 10:01:35;;;;;;;10.65;4.25;;;34.30;77.90;;;;;;5041732;28;20016;-76
2022/08/18 10:04:34;;;;;;;12.30;3.70;;;31.50;73.70;;;;;;5042327;28;20557;-76
2022/08/18 10:07:19;;;;;;;7.68;3.65;;;32.90;73.50;;;;;;4999901;28;20041;-75
2022/08/18 10:10:22;;;;;;;10.85;4.50;;;31.10;72.00;;;;;;5016406;28;20037;-75
2022/08/18 10:13:09;;;;;;;7.77;3.70;;;31.80;71.90;;;;;;5027051;28;20055;-75
2022/08/18 10:15:40;;;;;;;8.02;2.90;;;30.80;66.20;;;;;;5019287;28;20041;-79
2022/08/18 10:18:41;;;;;;;6.55;3.00;;;32.00;67.00;;;;;;5035960;28;20087;-75
2022/08/18 10:21:17;;;;;;;8.10;3.92;;;32.50;66.60;;;;;;4957850;28;20031;-76
2022/08/18 10:23:53;;;;;;;8.90;3.88;;;30.80;66.20;;;;;;4957920;28;20073;-76
2022/08/18 10:26:36;;;;;;;9.48;4.13;;;32.30;64.40;;;;;;4957864;28;20027;-76
2022/08/18 10:29:05;;;;;;;6.70;2.30;;;32.60;60.80;;;;;;4957865;28;20085;-77
2022/08/18 10:31:56;;;;;;;7.07;3.08;;;32.70;56.60;;;;;;4941712;28;20027;-76
2022/08/18 10:34:41;;;;;;;6.88;2.95;;;32.80;60.70;;;;;;4942014;28;20046;-79
2022/08/18 10:37:25;;;;;;;6.40;2.42;;;33.10;58.80;;;;;;4957642;28;20210;-78
2022/08/18 10:39:51;;;;;;;9.27;2.60;;;33.20;53.90;;;;;;4958047;28;20023;-76
2022/08/18 10:43:01;;;;;;;14.23;3.22;;;33.30;54.70;;;;;;4941278;28;20039;-76
2022/08/18 10:45:36;;;;;;;8.18;2.63;;;33.30;51.60;;;;;;4919399;29;20035;-76
2022/08/18 10:48:17;;;;;;;8.10;2.88;;;33.30;51.20;;;;;;4919345;29;20040;-76
2022/08/18 10:50:51;;;;;;;5.57;2.67;;;33.40;50.20;;;;;;4920519;29;20036;-77
2022/08/18 10:53:31;;;;;;;7.50;2.53;;;33.50;50.30;;;;;;4920511;29;20038;-77
2022/08/18 10:56:17;;;;;;;9.45;2.70;;;33.60;47.60;;;;;;4982175;28;20034;-77
2022/08/18 10:59:21;;;;;;;7.82;2.72;;;33.70;49.80;;;;;;4995971;28;20720;-76
2022/08/18 11:02:08;;;;;;;6.47;2.78;;;33.70;49.10;;;;;;4995566;28;20710;-76
2022/08/18 11:04:43;;;;;;;8.15;2.65;;;35.90;49.40;;;;;;4979479;28;20116;-79
2022/08/18 11:07:31;;;;;;;8.05;2.97;;;34.00;47.30;;;;;;4996365;28;20030;-77
2022/08/18 11:09:58;;;;;;;7.65;3.25;;;31.70;46.70;;;;;;4995779;28;20034;-76
2022/08/18 11:12:58;;;;;;;6.95;2.95;;;34.10;47.50;;;;;;4995913;28;20673;-79
2022/08/18 11:16:11;;;;;;;7.57;3.40;;;34.30;47.50;;;;;;4986576;28;20034;-76
2022/08/18 11:18:44;;;;;;;8.70;3.10;;;34.40;47.80;;;;;;4937682;29;20252;-78
2022/08/18 11:21:28;;;;;;;;;;;34.70;47.80;;;;;;4943678;28;20045;-77
2022/08/18 11:24:08;;;;;;;5.25;2.55;;;35.00;46.50;;;;;;4959519;28;19910;-79
2022/08/18 11:26:41;;;;;;;7.20;3.33;;;35.30;46.50;;;;;;4975833;28;20026;-76
2022/08/18 11:29:16;;;;;;;;;;;35.30;45.90;;;;;;4975994;28;20044;-75
2022/08/18 11:31:42;;;;;;;6.65;2.80;;;32.60;43.40;;;;;;4975279;28;19906;-77
2022/08/18 11:34:16;;;;;;;7.10;2.40;;;35.90;44.10;;;;;;4975998;28;20066;-77
2022/08/18 11:36:42;;;;;;;5.50;2.85;;;36.20;44.30;;;;;;4975697;28;20232;-77
2022/08/18 11:39:19;;;;;;;6.13;3.05;;;36.70;42.80;;;;;;4975369;28;20682;-76
2022/08/18 11:41:48;;;;;;;6.65;2.85;;;36.70;41.00;;;;;;4975450;28;20205;-79
2022/08/18 11:44:19;;;;;;;9.23;3.00;;;36.70;41.60;;;;;;4976009;28;20279;-75
2022/08/18 11:46:44;;;;;;;8.73;3.05;;;36.70;42.30;;;;;;4975809;28;20025;-76
2022/08/18 11:49:28;;;;;;;7.78;3.03;;;35.00;41.50;;;;;;4989075;28;20034;-79
2022/08/18 11:52:22;;;;;;;7.70;3.28;;;37.30;42.80;;;;;;4995363;28;20037;-75
2022/08/18 11:54:50;;;;;;;7.90;3.28;;;36.60;43.90;;;;;;4945763;28;20026;-75
2022/08/18 11:57:50;;;;;;;9.82;3.35;;;36.70;44.70;;;;;;4995175;28;20160;-79
2022/08/18 12:00:38;;;;;;;8.70;3.53;;;37.10;44.60;;;;;;4981873;28;20026;-78
2022/08/18 12:03:07;;;;;;;9.50;3.15;;;37.50;44.20;;;;;;4976049;28;20018;-76
2022/08/18 12:05:53;;;;;;;6.50;3.47;;;36.90;42.40;;;;;;4976127;28;20031;-80
2022/08/18 12:08:34;;;;;;;8.48;3.25;;;35.40;41.50;;;;;;4976914;28;20110;-78
2022/08/18 12:11:13;;;;;;;7.13;3.15;;;37.90;42.90;;;;;;4975330;28;20029;-77
2022/08/18 12:13:44;;;;;;;6.95;3.15;;;38.10;43.50;;;;;;4975604;28;20022;-80
2022/08/18 12:16:18;;;;;;;8.60;3.30;;;38.40;44.40;;;;;;4976561;28;20108;-77
2022/08/18 12:18:44;;;;;;;7.60;3.10;;;38.60;44.00;;;;;;4980191;28;20034;-82
2022/08/18 12:21:10;;;;;;;8.50;3.35;;;38.40;43.70;;;;;;4980726;28;20088;-77
2022/08/18 12:23:40;;;;;;;6.88;3.40;;;38.60;44.80;;;;;;4980689;28;20061;-76
2022/08/18 12:26:06;;;;;;;7.00;3.08;;;38.80;44.50;;;;;;4996453;28;20235;-75
2022/08/18 12:28:32;;;;;;;7.15;2.80;;;39.20;43.80;;;;;;4999492;28;20061;-78
2022/08/18 12:30:58;;;;;;;10.73;3.40;;;39.30;43.50;;;;;;5005596;28;20033;-75
2022/08/18 12:33:25;;;;;;;7.72;3.25;;;39.20;43.70;;;;;;5040497;28;20043;-79
2022/08/18 12:36:11;;;;;;;7.30;3.17;;;39.50;43.00;;;;;;5040160;28;20052;-79
2022/08/18 12:38:39;;;;;;;6.93;3.08;;;39.50;43.10;;;;;;5039662;28;20037;-79
2022/08/18 12:41:05;;;;;;;9.00;3.35;;;39.80;42.60;;;;;;5039189;28;20689;-78
2022/08/18 12:43:31;;;;;;;8.20;2.70;;;40.20;43.10;;;;;;5040280;28;20025;-79
2022/08/18 12:45:58;;;;;;;8.43;3.00;;;40.30;41.50;;;;;;5041110;28;20029;-78
2022/08/18 12:48:49;;;;;;;10.95;3.20;;;40.40;41.00;;;;;;5040286;28;20615;-84
2022/08/18 12:51:20;;;;;;;4.90;2.30;;;40.10;41.80;;;;;;5040094;28;20036;-77
2022/08/18 12:53:55;;;;;;;12.68;3.75;;;41.00;41.60;;;;;;5052334;22;20611;-77
2022/08/18 12:56:31;;;;;;;6.25;2.83;;;41.10;40.70;;;;;;5043521;28;20028;-78
2022/08/18 12:59:09;;;;;;;9.65;2.97;;;41.30;41.30;;;;;;5060933;28;20078;-79
2022/08/18 13:01:50;;;;;;;11.75;3.85;;;41.20;39.40;;;;;;5060215;28;20020;-79
2022/08/18 13:04:16;;;;;;;9.38;3.05;;;41.50;40.40;;;;;;5060797;28;20017;-78
2022/08/18 13:06:52;;;;;;;7.72;2.72;;;40.80;39.10;;;;;;5060186;28;20143;-76
2022/08/18 13:09:19;;;;;;;7.53;2.97;;;40.90;39.90;;;;;;5042159;28;20734;-77
2022/08/18 13:11:45;;;;;;;6.60;2.63;;;41.00;39.30;;;;;;5060141;28;20092;-79
2022/08/18 13:14:13;;;;;;;6.68;2.80;;;41.50;39.10;;;;;;5056175;28;20073;-80
2022/08/18 13:16:43;;;;;;;5.57;2.85;;;41.90;37.90;;;;;;5061884;28;20227;-84
2022/08/18 13:19:37;;;;;;;6.93;2.35;;;42.00;37.70;;;;;;5062690;28;20056;-76
2022/08/18 13:22:03;;;;;;;9.30;3.10;;;41.70;37.70;;;;;;5062040;28;20051;-79
2022/08/18 13:24:29;;;;;;;6.00;1.98;;;42.70;37.60;;;;;;5062518;28;20031;-78
2022/08/18 13:26:56;;;;;;;10.00;2.42;;;42.80;37.10;;;;;;5062607;28;20024;-78
2022/08/18 13:29:24;;;;;;;7.00;2.83;;;43.40;37.20;;;;;;5079217;28;20028;-76
2022/08/18 13:31:59;;;;;;;7.10;2.28;;;43.80;37.70;;;;;;5062852;28;20028;-78
2022/08/18 13:34:39;;;;;;;9.75;2.63;;;45.10;37.20;;;;;;5061453;28;20026;-76
2022/08/18 13:37:16;;;;;;;7.70;2.07;;;44.70;36.20;;;;;;5062619;28;20092;-76
2022/08/18 13:39:50;;;;;;;7.28;2.55;;;45.10;36.00;;;;;;5062839;28;20020;-78
2022/08/18 13:42:19;;;;;;;7.75;2.15;;;45.20;35.20;;;;;;5062193;28;20024;-78